createdAt,value
2019-02-21T00:01:40.346Z,59.45
2019-02-21T00:04:15.289Z,59.38
2019-02-21T00:06:49.894Z,59.27
2019-02-21T00:09:23.285Z,59.42
2019-02-21T00:11:57.672Z,58.92
2019-02-21T00:14:32.278Z,58.42
2019-02-21T00:17:06.881Z,58.38
2019-02-21T00:19:40.091Z,58.32
2019-02-21T00:22:14.509Z,58.16
2019-02-21T00:24:49.287Z,57.90
2019-02-21T00:27:23.955Z,57.90
2019-02-21T00:29:58.673Z,58.03
2019-02-21T00:35:20.313Z,57.86
2019-02-21T00:37:55.109Z,58.33
2019-02-21T00:40:30.136Z,58.15
2019-02-21T00:43:05.111Z,58.63
2019-02-21T00:45:39.738Z,58.75
2019-02-21T00:48:15.708Z,58.75
2019-02-21T00:50:50.233Z,58.36
2019-02-21T00:53:24.710Z,58.72
2019-02-21T00:55:59.320Z,58.72
2019-02-21T00:58:33.935Z,59.39
2019-02-21T01:01:08.385Z,58.92
2019-02-21T01:03:42.792Z,59.42
2019-02-21T01:06:16.515Z,59.42
2019-02-21T01:08:51.293Z,59.69
2019-02-21T01:11:27.763Z,60.04
2019-02-21T01:14:01.288Z,59.91
2019-02-21T01:16:36.675Z,60.35
2019-02-21T01:19:11.311Z,60.35
2019-02-21T01:21:45.706Z,60.15
2019-02-21T01:24:20.294Z,60.18
2019-02-21T01:26:54.722Z,60.09
2019-02-21T01:29:29.284Z,60.73
2019-02-21T01:32:03.954Z,60.73
2019-02-21T01:34:38.360Z,60.64
2019-02-21T01:37:12.744Z,60.37
2019-02-21T01:39:47.294Z,60.32
2019-02-21T01:42:21.700Z,60.27
2019-02-21T01:44:56.289Z,60.40
2019-02-21T01:47:30.954Z,60.88
2019-02-21T01:50:25.674Z,60.88
2019-02-21T01:53:00.294Z,60.78
2019-02-21T01:55:34.894Z,60.65
2019-02-21T01:58:08.116Z,60.55
2019-02-21T02:00:42.287Z,60.49
2019-02-21T02:03:17.909Z,60.61
2019-02-21T02:05:51.277Z,60.55
2019-02-21T02:08:25.685Z,60.46
2019-02-21T02:11:00.286Z,60.54
2019-02-21T02:13:34.960Z,60.58
2019-02-21T02:16:10.692Z,60.52
2019-02-21T02:18:45.283Z,60.52
2019-02-21T02:21:19.741Z,60.17
2019-02-21T02:23:54.583Z,60.33
2019-02-21T02:26:28.957Z,60.33
2019-02-21T02:29:02.273Z,60.30
2019-02-21T02:31:36.673Z,60.28
2019-02-21T02:34:11.283Z,60.28
2019-02-21T02:36:45.681Z,60.50
2019-02-21T02:39:20.688Z,60.52
2019-02-21T02:41:55.677Z,60.43
2019-02-21T02:44:30.682Z,60.33
2019-02-21T02:47:05.291Z,60.36
2019-02-21T02:49:39.865Z,60.16
2019-02-21T02:52:13.294Z,60.28
2019-02-21T02:54:47.733Z,60.25
2019-02-21T02:57:22.257Z,60.42
2019-02-21T02:59:56.993Z,60.51
2019-02-21T03:02:31.655Z,60.63
2019-02-21T03:05:06.582Z,60.66
2019-02-21T03:07:41.131Z,60.72
2019-02-21T03:10:15.744Z,60.87
2019-02-21T03:12:50.318Z,60.95
2019-02-21T03:15:24.943Z,60.93
2019-02-21T03:17:59.321Z,61.02
2019-02-21T03:20:34.291Z,61.04
2019-02-21T03:23:08.881Z,61.42
2019-02-21T03:25:42.126Z,61.42
2019-02-21T03:28:16.315Z,61.42
2019-02-21T03:30:50.940Z,61.51
2019-02-21T03:33:25.323Z,61.69
2019-02-21T03:36:00.317Z,61.64
2019-02-21T03:38:35.854Z,61.86
2019-02-21T03:41:09.072Z,61.88
2019-02-21T03:43:42.273Z,62.24
2019-02-21T03:46:16.678Z,62.01
2019-02-21T03:48:51.600Z,62.22
2019-02-21T03:51:26.294Z,62.56
2019-02-21T03:54:01.279Z,62.79
2019-02-21T03:56:35.878Z,63.01
2019-02-21T03:59:09.299Z,63.06
2019-02-21T04:01:43.668Z,63.32
2019-02-21T04:04:18.326Z,63.32
2019-02-21T04:06:53.332Z,63.18
2019-02-21T04:09:27.899Z,63.30
2019-02-21T04:12:01.279Z,63.30
2019-02-21T04:14:35.948Z,63.00
2019-02-21T04:17:09.555Z,63.00
2019-02-21T04:19:43.970Z,62.93
2019-02-21T04:22:19.712Z,62.94
2019-02-21T04:24:54.339Z,62.94
2019-02-21T04:27:29.223Z,62.79
2019-02-21T04:30:03.768Z,62.60
2019-02-21T04:32:37.116Z,62.60
2019-02-21T04:35:11.689Z,62.86
2019-02-21T04:37:46.278Z,62.86
2019-02-21T04:40:20.878Z,62.76
2019-02-21T04:42:54.108Z,62.65
2019-02-21T04:45:28.659Z,62.65
2019-02-21T04:48:03.259Z,62.71
2019-02-21T04:50:37.717Z,62.73
2019-02-21T04:53:12.268Z,62.92
2019-02-21T04:55:46.897Z,62.85
2019-02-21T04:58:19.866Z,62.82
2019-02-21T05:00:55.094Z,62.82
2019-02-21T05:03:29.802Z,62.69
2019-02-21T05:06:03.288Z,62.69
2019-02-21T05:08:37.683Z,62.84
2019-02-21T05:11:12.676Z,62.84
2019-02-21T05:13:47.289Z,62.73
2019-02-21T05:16:21.736Z,62.96
2019-02-21T05:18:58.730Z,63.34
2019-02-21T05:21:33.298Z,63.34
2019-02-21T05:24:07.804Z,63.27
2019-02-21T05:26:48.278Z,63.05
2019-02-21T05:29:22.798Z,62.63
2019-02-21T05:32:10.602Z,62.63
2019-02-21T05:35:00.651Z,62.80
2019-02-21T05:37:57.788Z,62.78
2019-02-21T05:40:51.775Z,62.41
2019-02-21T05:43:46.864Z,62.12
2019-02-21T05:46:41.958Z,61.34
2019-02-21T05:49:46.998Z,61.34
2019-02-21T05:52:46.312Z,61.19
2019-02-21T05:56:09.953Z,60.87
2019-02-21T05:59:18.677Z,60.52
2019-02-21T06:02:16.879Z,60.53
2019-02-21T06:05:19.614Z,60.49
2019-02-21T06:08:19.278Z,60.62
2019-02-21T06:11:36.679Z,60.85
2019-02-21T06:14:45.722Z,60.81
2019-02-21T06:18:12.291Z,60.90
2019-02-21T06:21:26.408Z,60.61
2019-02-21T06:24:41.867Z,60.61
2019-02-21T06:27:38.464Z,60.63
2019-02-21T06:30:47.129Z,60.65
2019-02-21T06:33:39.332Z,60.49
2019-02-21T06:36:31.319Z,60.70
2019-02-21T06:39:25.157Z,60.25
2019-02-21T06:42:17.743Z,60.25
2019-02-21T06:45:09.110Z,60.52
2019-02-21T06:48:00.292Z,60.77
2019-02-21T06:50:52.288Z,60.70
2019-02-21T06:53:44.702Z,60.63
2019-02-21T06:56:37.330Z,60.51
2019-02-21T06:59:29.319Z,60.69
2019-02-21T07:02:22.294Z,60.45
2019-02-21T07:05:14.672Z,60.53
2019-02-21T07:08:08.840Z,60.53
2019-02-21T07:11:06.216Z,60.40
2019-02-21T07:13:55.757Z,60.13
2019-02-21T07:16:47.821Z,60.27
2019-02-21T07:19:39.092Z,60.27
2019-02-21T07:22:31.580Z,60.14
2019-02-21T07:25:32.352Z,60.38
2019-02-21T07:28:23.046Z,60.26
2019-02-21T07:31:14.022Z,60.20
2019-02-21T07:34:07.139Z,60.28
2019-02-21T07:36:59.415Z,60.28
2019-02-21T07:39:51.882Z,60.13
2019-02-21T07:42:44.612Z,59.90
2019-02-21T07:45:37.281Z,59.71
2019-02-21T07:48:29.700Z,59.27
2019-02-21T07:51:21.800Z,59.27
2019-02-21T07:54:15.375Z,59.14
2019-02-21T07:57:08.640Z,58.82
2019-02-21T08:00:02.281Z,58.69
2019-02-21T08:02:54.666Z,58.92
2019-02-21T08:05:47.599Z,58.92
2019-02-21T08:08:40.337Z,58.57
2019-02-21T08:11:32.680Z,58.40
2019-02-21T08:14:24.955Z,57.99
2019-02-21T08:17:17.644Z,57.60
2019-02-21T08:20:11.679Z,57.60
2019-02-21T08:23:04.259Z,58.07
2019-02-21T08:25:56.271Z,58.21
2019-02-21T08:28:48.679Z,57.75
2019-02-21T08:31:40.279Z,57.83
2019-02-21T08:34:39.796Z,58.21
2019-02-21T08:37:31.787Z,58.26
2019-02-21T08:40:25.111Z,58.08
2019-02-21T08:43:18.106Z,58.43
2019-02-21T08:46:10.754Z,58.43
2019-02-21T08:49:02.949Z,57.97
2019-02-21T08:51:55.152Z,57.97
2019-02-21T08:54:45.863Z,58.01
2019-02-21T08:57:38.293Z,58.32
2019-02-21T09:00:31.743Z,58.53
2019-02-21T09:03:24.287Z,57.45
2019-02-21T09:06:17.128Z,57.45
2019-02-21T09:09:09.693Z,57.19
2019-02-21T09:12:02.458Z,57.13
2019-02-21T09:14:55.281Z,56.89
2019-02-21T09:17:47.658Z,57.12
2019-02-21T09:20:41.356Z,57.12
2019-02-21T09:23:33.731Z,58.24
2019-02-21T09:26:25.943Z,58.24
2019-02-21T09:29:18.309Z,58.06
2019-02-21T09:32:11.319Z,57.79
2019-02-21T09:35:03.310Z,57.47
2019-02-21T09:37:55.341Z,57.73
2019-02-21T09:40:47.787Z,58.01
2019-02-21T09:43:40.276Z,58.01
2019-02-21T09:46:32.676Z,58.25
2019-02-21T09:49:24.691Z,57.96
2019-02-21T09:52:16.773Z,57.96
2019-02-21T09:55:10.276Z,57.97
2019-02-21T09:58:02.319Z,57.82
2019-02-21T10:00:54.949Z,57.72
2019-02-21T10:03:47.646Z,57.74
2019-02-21T10:06:39.937Z,57.74
2019-02-21T10:09:33.297Z,57.76
2019-02-21T10:12:25.657Z,57.62
2019-02-21T10:15:18.645Z,57.79
2019-02-21T10:18:11.243Z,57.93
2019-02-21T10:21:03.276Z,57.58
2019-02-21T10:23:56.872Z,57.47
2019-02-21T10:26:49.688Z,58.04
2019-02-21T10:29:42.322Z,58.04
2019-02-21T10:32:35.113Z,57.79
2019-02-21T10:35:26.282Z,57.82
2019-02-21T10:38:18.290Z,58.05
2019-02-21T10:41:10.657Z,57.20
2019-02-21T10:44:03.247Z,57.20
2019-02-21T10:46:55.789Z,56.30
2019-02-21T10:49:47.746Z,56.30
2019-02-21T10:52:41.585Z,56.17
2019-02-21T10:55:33.270Z,56.53
2019-02-21T10:58:25.271Z,57.33
2019-02-21T11:01:17.277Z,57.33
2019-02-21T11:04:09.688Z,57.70
2019-02-21T11:07:02.273Z,57.70
2019-02-21T11:09:54.694Z,57.57
2019-02-21T11:12:47.280Z,57.57
2019-02-21T11:15:42.052Z,56.94
2019-02-21T11:18:33.936Z,55.47
2019-02-21T11:21:27.557Z,55.47
2019-02-21T11:24:20.258Z,54.78
2019-02-21T11:27:12.139Z,53.91
2019-02-21T11:30:03.281Z,53.76
2019-02-21T11:32:54.249Z,53.58
2019-02-21T11:35:46.424Z,53.63
2019-02-21T11:38:38.882Z,53.58
2019-02-21T11:41:31.582Z,53.24
2019-02-21T11:44:23.643Z,52.14
2019-02-21T11:47:15.738Z,52.14
2019-02-21T11:50:08.672Z,51.15
2019-02-21T11:53:00.956Z,51.15
2019-02-21T11:55:52.040Z,51.07
2019-02-21T11:58:42.997Z,51.03
2019-02-21T12:01:35.282Z,51.09
2019-02-21T12:04:27.730Z,50.71
2019-02-21T12:07:20.349Z,50.71
2019-02-21T12:10:13.313Z,51.18
2019-02-21T12:13:05.954Z,52.08
2019-02-21T12:15:59.130Z,52.11
2019-02-21T12:18:51.761Z,52.47
2019-02-21T12:21:44.279Z,52.48
2019-02-21T12:24:37.270Z,52.18
2019-02-21T12:27:29.281Z,52.11
2019-02-21T12:30:22.407Z,51.69
2019-02-21T12:33:14.857Z,51.18
2019-02-21T12:36:07.270Z,51.30
2019-02-21T12:38:59.126Z,51.22
2019-02-21T12:41:51.811Z,51.61
2019-02-21T12:44:44.930Z,51.59
2019-02-21T12:47:49.091Z,51.69
2019-02-21T12:50:43.682Z,51.79
2019-02-21T12:53:28.246Z,51.72
2019-02-21T12:56:20.678Z,52.28
2019-02-21T12:59:14.279Z,52.28
2019-02-21T13:02:06.728Z,52.09
2019-02-21T13:04:58.001Z,52.09
2019-02-21T13:07:48.862Z,52.18
2019-02-21T13:10:40.936Z,52.23
2019-02-21T13:13:33.282Z,52.39
2019-02-21T13:16:26.278Z,52.90
2019-02-21T13:19:18.676Z,53.00
2019-02-21T13:22:10.950Z,53.00
2019-02-21T13:25:03.338Z,52.90
2019-02-21T13:27:56.137Z,52.99
2019-02-21T13:30:48.581Z,53.19
2019-02-21T13:33:40.922Z,53.19
2019-02-21T13:36:33.998Z,53.46
2019-02-21T13:39:25.085Z,53.96
2019-02-21T13:42:17.271Z,53.43
2019-02-21T13:45:10.683Z,53.43
2019-02-21T13:48:03.281Z,53.70
2019-02-21T13:50:55.679Z,52.67
2019-02-21T13:53:47.991Z,52.67
2019-02-21T13:56:40.638Z,51.84
2019-02-21T14:00:39.695Z,51.82
2019-02-21T14:03:32.296Z,51.47
2019-02-21T14:06:25.120Z,51.17
2019-02-21T14:09:17.545Z,50.05
2019-02-21T14:12:10.286Z,50.05
2019-02-21T14:15:00.689Z,48.99
2019-02-21T14:17:52.753Z,48.18
2019-02-21T14:20:45.763Z,48.33
2019-02-21T14:23:37.650Z,48.71
2019-02-21T14:26:29.889Z,48.71
2019-02-21T14:29:22.313Z,49.03
2019-02-21T14:32:15.285Z,49.42
2019-02-21T14:35:08.885Z,49.73
2019-02-21T14:38:00.115Z,50.30
2019-02-21T14:40:52.276Z,50.99
2019-02-21T14:43:44.679Z,51.06
2019-02-21T14:46:36.579Z,51.35
2019-02-21T14:49:29.344Z,52.23
2019-02-21T14:52:21.943Z,52.57
2019-02-21T14:55:13.561Z,52.41
2019-02-21T14:58:05.890Z,52.35
2019-02-21T15:00:58.608Z,51.52
2019-02-21T15:03:50.678Z,50.74
2019-02-21T15:06:43.587Z,50.74
2019-02-21T15:09:36.333Z,50.65
2019-02-21T15:12:29.126Z,51.29
2019-02-21T15:15:22.119Z,51.94
2019-02-21T15:18:15.289Z,52.22
2019-02-21T15:21:08.118Z,52.66
2019-02-21T15:25:59.981Z,53.05
2019-02-21T15:28:52.764Z,53.05
2019-02-21T15:31:45.949Z,53.12
2019-02-21T15:34:38.291Z,52.95
2019-02-21T15:37:30.945Z,52.93
2019-02-21T15:40:23.297Z,52.87
2019-02-21T15:45:09.643Z,52.24
2019-02-21T15:48:01.775Z,52.36
2019-02-21T15:50:53.951Z,52.47
2019-02-21T15:53:46.273Z,52.39
2019-02-21T15:56:39.135Z,52.71
2019-02-21T15:59:31.680Z,52.82
2019-02-21T16:02:23.936Z,53.04
2019-02-21T16:05:15.267Z,53.43
2019-02-21T16:08:09.268Z,53.47
2019-02-21T16:11:04.232Z,53.31
2019-02-21T16:14:03.241Z,53.60
2019-02-21T16:17:26.778Z,53.47
2019-02-21T16:20:19.323Z,53.50
2019-02-21T16:23:13.290Z,53.52
2019-02-21T16:28:33.701Z,53.67
2019-02-21T16:31:27.309Z,53.67
2019-02-21T16:34:20.354Z,53.63
2019-02-21T16:37:12.882Z,53.95
2019-02-21T16:40:04.270Z,54.18
2019-02-21T16:42:56.594Z,54.32
2019-02-21T16:45:53.662Z,54.18
2019-02-21T16:51:27.898Z,54.39
2019-02-21T16:54:20.152Z,54.39
2019-02-21T16:57:12.669Z,54.53
2019-02-21T17:00:05.329Z,54.45
2019-02-21T17:02:59.279Z,54.34
2019-02-21T17:05:51.333Z,54.56
2019-02-21T17:08:43.302Z,54.62
2019-02-21T17:11:36.354Z,54.90
2019-02-21T17:14:28.793Z,54.80
2019-02-21T17:17:21.315Z,54.77
2019-02-21T17:20:16.110Z,54.76
2019-02-21T17:23:07.046Z,55.17
2019-02-21T17:25:59.277Z,55.17
2019-02-21T17:28:52.544Z,55.00
2019-02-21T17:32:06.340Z,55.17
2019-02-21T17:34:58.953Z,55.59
2019-02-21T17:37:50.926Z,55.59
2019-02-21T17:40:42.967Z,55.67
2019-02-21T17:43:35.301Z,55.86
2019-02-21T17:46:27.334Z,56.62
2019-02-21T17:49:18.421Z,58.06
2019-02-21T17:52:10.674Z,61.03
2019-02-21T17:55:02.739Z,61.03
2019-02-21T17:57:55.887Z,62.37
2019-02-21T18:00:48.280Z,63.52
2019-02-21T18:03:40.283Z,65.31
2019-02-21T18:06:30.858Z,66.41
2019-02-21T18:09:22.068Z,67.14
2019-02-21T18:12:14.264Z,68.22
2019-02-21T18:15:06.946Z,69.49
2019-02-21T18:17:59.128Z,71.11
2019-02-21T18:20:51.349Z,72.11
2019-02-21T18:23:43.704Z,73.04
2019-02-21T18:26:36.265Z,73.39
2019-02-21T18:29:28.673Z,74.51
2019-02-21T18:32:22.336Z,74.51
2019-02-21T18:35:14.527Z,75.03
2019-02-21T18:38:06.781Z,75.46
2019-02-21T18:40:59.282Z,75.29
2019-02-21T18:43:51.665Z,75.85
2019-02-21T18:46:44.279Z,75.85
2019-02-21T18:49:36.721Z,75.62
2019-02-21T18:52:28.952Z,75.62
2019-02-21T18:55:21.681Z,75.57
2019-02-21T18:58:13.784Z,75.62
2019-02-21T19:01:07.312Z,75.62
2019-02-21T19:04:00.438Z,75.37
2019-02-21T19:06:52.779Z,75.01
2019-02-21T19:09:43.695Z,74.94
2019-02-21T19:12:36.421Z,74.46
2019-02-21T19:15:29.944Z,74.54
2019-02-21T19:18:24.210Z,74.54
2019-02-21T19:21:15.888Z,74.26
2019-02-21T19:24:08.290Z,74.26
2019-02-21T19:27:00.685Z,74.14
2019-02-21T19:29:54.089Z,74.17
2019-02-21T19:32:47.720Z,73.82
2019-02-21T19:35:39.931Z,73.59
2019-02-21T19:38:33.278Z,73.45
2019-02-21T19:41:25.703Z,73.02
2019-02-21T19:44:18.277Z,73.02
2019-02-21T19:47:10.884Z,72.93
2019-02-21T19:50:04.280Z,72.98
2019-02-21T19:52:56.928Z,72.55
2019-02-21T19:58:36.867Z,71.99
2019-02-21T20:01:27.858Z,71.81
2019-02-21T20:04:19.941Z,71.46
2019-02-21T20:07:12.267Z,71.33
2019-02-21T20:10:06.324Z,71.16
2019-02-21T20:13:01.280Z,70.75
2019-02-21T20:15:52.012Z,70.75
2019-02-21T20:18:44.384Z,70.61
2019-02-21T20:21:36.754Z,69.92
2019-02-21T20:24:29.126Z,69.92
2019-02-21T20:27:20.069Z,69.40
2019-02-21T20:30:15.787Z,68.71
2019-02-21T20:33:08.099Z,68.48
2019-02-21T20:36:00.462Z,68.48
2019-02-21T20:38:53.447Z,68.47
2019-02-21T20:41:46.777Z,68.70
2019-02-21T20:44:39.291Z,68.70
2019-02-21T20:47:31.897Z,69.11
2019-02-21T20:50:23.008Z,69.11
2019-02-21T20:53:15.980Z,69.11
2019-02-21T20:57:16.952Z,69.72
2019-02-21T21:00:12.355Z,70.08
2019-02-21T21:03:05.310Z,70.03
2019-02-21T21:05:58.109Z,70.13
2019-02-21T21:08:50.350Z,70.48
2019-02-21T21:11:42.928Z,70.94
2019-02-21T21:14:35.099Z,71.55
2019-02-21T21:17:25.793Z,71.88
2019-02-21T21:20:18.503Z,72.34
2019-02-21T21:23:10.939Z,73.77
2019-02-21T21:26:03.303Z,73.77
2019-02-21T21:28:55.822Z,74.00
2019-02-21T21:31:47.398Z,74.00
2019-02-21T21:34:38.281Z,74.46
2019-02-21T21:37:30.899Z,75.11
2019-02-21T21:40:22.418Z,75.65
2019-02-21T21:43:15.555Z,76.16
2019-02-21T21:46:08.288Z,76.16
2019-02-21T22:03:39.969Z,78.36
2019-02-21T22:06:32.784Z,78.36
2019-02-21T22:09:25.534Z,78.28
2019-02-21T22:12:19.304Z,78.57
2019-02-21T22:15:12.395Z,78.90
2019-02-21T22:18:04.771Z,79.13
2019-02-21T22:20:56.756Z,79.13
2019-02-21T22:23:49.294Z,79.37
2019-02-21T22:26:41.779Z,79.87
2019-02-21T22:29:34.316Z,79.87
2019-02-21T22:32:26.751Z,79.86
2019-02-21T22:35:19.326Z,79.72
2019-02-21T22:38:12.081Z,79.58
2019-02-21T22:41:03.269Z,79.88
2019-02-21T22:43:55.963Z,79.68
2019-02-21T22:46:48.525Z,79.68
2019-02-21T22:49:41.374Z,79.47
2019-02-21T22:52:33.956Z,79.39
2019-02-21T22:55:10.267Z,79.39
2019-02-21T22:57:44.963Z,79.13
2019-02-21T23:01:01.057Z,79.02
2019-02-21T23:04:23.290Z,78.88
2019-02-21T23:07:47.705Z,78.95
2019-02-21T23:10:22.469Z,79.25
2019-02-21T23:12:57.295Z,79.11
2019-02-21T23:15:33.122Z,79.48
2019-02-21T23:18:07.964Z,79.68
2019-02-21T23:20:42.363Z,79.68
2019-02-21T23:23:17.288Z,79.44
2019-02-21T23:25:51.691Z,79.48
2019-02-21T23:28:26.291Z,79.31
2019-02-21T23:31:00.966Z,79.26
2019-02-21T23:33:36.294Z,79.08
2019-02-21T23:36:10.653Z,79.35
2019-02-21T23:38:45.267Z,79.35
2019-02-21T23:41:19.719Z,79.78
2019-02-21T23:43:52.879Z,79.76
2019-02-21T23:46:27.288Z,79.85
2019-02-21T23:49:01.979Z,79.94
2019-02-21T23:51:36.676Z,79.79
2019-02-21T23:54:11.283Z,79.79
2019-02-21T23:56:45.753Z,79.72
2019-02-21T23:59:21.416Z,79.72
